Time,TemperatureF,DewpointF,PressureIn,WindDirection,WindDirectionDegrees,WindSpeedMPH,WindSpeedGustMPH,Humidity,HourlyPrecipIn,Conditions,Clouds,dailyrainin,SoftwareType,DateUTC
2013-03-05 00:05:00,27.0,24.1,30.13,NE,49,5.0,8.0,89,0.00,,,0.00,meteohub,2013-03-05 06:05:00,
2013-03-05 00:10:00,26.8,23.9,30.13,NE,49,5.0,7.0,89,0.00,,,0.00,meteohub,2013-03-05 06:10:00,
2013-03-05 00:15:00,26.8,23.9,30.13,NE,49,7.0,7.0,89,0.00,,,0.00,meteohub,2013-03-05 06:15:00,
2013-03-05 00:20:00,26.8,23.9,30.12,NE,49,6.0,8.0,89,0.00,,,0.00,meteohub,2013-03-05 06:20:00,
2013-03-05 00:25:00,26.8,23.9,30.12,NE,49,7.0,8.0,89,0.00,,,0.00,meteohub,2013-03-05 06:25:00,
2013-03-05 00:30:00,26.8,23.9,30.12,NE,49,5.0,8.0,89,0.00,,,0.00,meteohub,2013-03-05 06:30:00,
2013-03-05 00:36:00,26.8,24.3,30.12,NE,49,6.0,8.0,90,0.00,,,0.00,meteohub,2013-03-05 06:36:00,
2013-03-05 00:41:00,26.8,24.3,30.12,NE,49,5.0,7.0,90,0.00,,,0.00,meteohub,2013-03-05 06:41:00,
2013-03-05 00:46:00,26.8,24.3,30.12,NE,49,5.0,7.0,90,0.00,,,0.00,meteohub,2013-03-05 06:46:00,
2013-03-05 00:51:00,26.8,24.3,30.12,NE,49,6.0,8.0,90,0.00,,,0.00,meteohub,2013-03-05 06:51:00,
2013-03-05 00:56:00,26.6,24.1,30.11,NE,46,6.0,8.0,90,0.00,,,0.00,meteohub,2013-03-05 06:56:00,
2013-03-05 01:01:00,26.6,24.1,30.11,NE,39,6.0,8.0,90,0.00,,,0.00,meteohub,2013-03-05 07:01:00,
2013-03-05 01:07:00,26.4,23.9,30.11,NE,39,5.0,8.0,90,0.00,,,0.00,meteohub,2013-03-05 07:07:00,
2013-03-05 01:12:00,26.6,24.1,30.11,NE,39,5.0,8.0,90,0.00,,,0.00,meteohub,2013-03-05 07:12:00,
2013-03-05 01:17:00,26.6,24.1,30.10,NE,39,7.0,7.0,90,0.00,,,0.00,meteohub,2013-03-05 07:17:00,
2013-03-05 01:22:00,26.6,23.7,30.10,NE,39,4.0,8.0,89,0.00,,,0.00,meteohub,2013-03-05 07:22:00,
2013-03-05 01:27:00,26.8,23.9,30.11,NE,39,6.0,8.0,89,0.00,,,0.00,meteohub,2013-03-05 07:27:00,
2013-03-05 01:32:00,26.8,23.9,30.10,NE,39,5.0,8.0,89,0.00,,,0.00,meteohub,2013-03-05 07:32:00,
2013-03-05 01:37:00,27.0,24.1,30.10,NE,38,5.0,7.0,89,0.00,,,0.00,meteohub,2013-03-05 07:37:00,
2013-03-05 01:42:00,27.0,24.1,30.10,NE,38,4.0,8.0,89,0.00,,,0.00,meteohub,2013-03-05 07:42:00,
2013-03-05 01:47:00,27.0,24.1,30.10,NE,38,5.0,8.0,89,0.00,,,0.00,meteohub,2013-03-05 07:47:00,
2013-03-05 01:52:00,27.0,24.1,30.10,NE,38,3.0,8.0,89,0.00,,,0.00,meteohub,2013-03-05 07:52:00,
2013-03-05 01:57:00,27.1,24.3,30.10,NE,38,4.0,7.0,89,0.00,,,0.00,meteohub,2013-03-05 07:57:00,
2013-03-05 02:02:00,27.1,24.3,30.09,NE,38,4.0,7.0,89,0.00,,,0.00,meteohub,2013-03-05 08:02:00,
2013-03-05 02:07:00,27.1,24.3,30.09,NE,38,5.0,7.0,89,0.00,,,0.00,meteohub,2013-03-05 08:07:00,
2013-03-05 02:12:00,27.3,24.4,30.09,NE,38,4.0,7.0,89,0.00,,,0.00,meteohub,2013-03-05 08:12:00,
2013-03-05 02:17:00,27.3,24.4,30.08,NE,38,4.0,7.0,89,0.00,,,0.00,meteohub,2013-03-05 08:17:00,
2013-03-05 02:22:00,27.3,24.4,30.08,NE,38,6.0,8.0,89,0.00,,,0.00,meteohub,2013-03-05 08:22:00,
2013-03-05 02:27:00,27.5,24.6,30.08,NE,38,6.0,8.0,89,0.00,,,0.00,meteohub,2013-03-05 08:27:00,
2013-03-05 02:32:00,27.7,24.8,30.07,NE,38,8.0,8.0,89,0.00,,,0.00,meteohub,2013-03-05 08:32:00,
2013-03-05 02:37:00,27.7,24.8,30.07,NE,34,6.0,9.0,89,0.00,,,0.00,meteohub,2013-03-05 08:37:00,
2013-03-05 02:42:00,27.9,24.8,30.07,NE,36,6.0,9.0,88,0.00,,,0.00,meteohub,2013-03-05 08:42:00,
2013-03-05 02:47:00,28.0,25.0,30.06,NE,38,7.0,9.0,88,0.00,,,0.00,meteohub,2013-03-05 08:47:00,
2013-03-05 02:52:00,28.2,25.2,30.06,NE,51,7.0,9.0,88,0.00,,,0.00,meteohub,2013-03-05 08:52:00,
2013-03-05 02:58:00,28.6,25.5,30.06,NE,53,10.0,10.0,88,0.00,,,0.00,meteohub,2013-03-05 08:58:00,
2013-03-05 03:03:00,28.6,25.2,30.06,NE,49,8.0,12.0,87,0.00,,,0.00,meteohub,2013-03-05 09:03:00,
2013-03-05 03:08:00,28.8,25.3,30.05,NE,45,10.0,12.0,87,0.00,,,0.00,meteohub,2013-03-05 09:08:00,
2013-03-05 03:13:00,28.8,25.3,30.05,NE,41,8.0,13.0,87,0.00,,,0.00,meteohub,2013-03-05 09:13:00,
2013-03-05 03:18:00,28.8,25.3,30.05,NE,48,11.0,13.0,87,0.00,,,0.00,meteohub,2013-03-05 09:18:00,
2013-03-05 03:24:00,28.8,25.3,30.05,NE,49,8.0,13.0,87,0.00,,,0.00,meteohub,2013-03-05 09:24:00,
2013-03-05 03:29:00,28.8,25.3,30.05,NE,44,6.0,13.0,87,0.00,,,0.00,meteohub,2013-03-05 09:29:00,
2013-03-05 11:51:00,28.9,24.1,29.99,NE,51,10.0,18.0,82,0.00,,,0.00,meteohub,2013-03-05 17:51:00,
2013-03-05 11:56:00,29.1,24.3,29.99,NE,45,10.0,18.0,82,0.00,,,0.00,meteohub,2013-03-05 17:56:00,
2013-03-05 12:02:00,29.1,24.3,29.98,NE,56,14.0,16.0,82,0.00,,,0.00,meteohub,2013-03-05 18:02:00,
2013-03-05 12:07:00,28.9,23.9,29.98,NE,44,11.0,16.0,81,0.00,,,0.00,meteohub,2013-03-05 18:07:00,
2013-03-05 12:12:00,29.1,24.3,29.97,NE,43,12.0,18.0,82,0.00,,,0.00,meteohub,2013-03-05 18:12:00,
2013-03-05 12:17:00,29.5,24.1,29.97,NNE,28,13.0,18.0,80,0.00,,,0.00,meteohub,2013-03-05 18:17:00,
2013-03-05 12:22:00,29.5,23.5,29.96,NE,44,14.0,18.0,78,0.00,,,0.00,meteohub,2013-03-05 18:22:00,
2013-03-05 12:27:00,29.7,23.9,29.96,NNE,30,15.0,20.0,79,0.00,,,0.00,meteohub,2013-03-05 18:27:00,
2013-03-05 12:32:00,29.7,23.9,29.96,NE,41,12.0,20.0,79,0.00,,,0.00,meteohub,2013-03-05 18:32:00,
2013-03-05 12:37:00,29.5,23.5,29.97,NE,36,11.0,18.0,78,0.00,,,0.00,meteohub,2013-03-05 18:37:00,
2013-03-05 12:42:00,29.7,23.7,29.96,NE,35,14.0,18.0,78,0.00,,,0.00,meteohub,2013-03-05 18:42:00,
2013-03-05 12:47:00,29.7,23.7,29.96,NE,36,15.0,18.0,78,0.00,,,0.00,meteohub,2013-03-05 18:47:00,
2013-03-05 12:52:00,29.7,23.7,29.96,NE,38,12.0,20.0,78,0.00,,,0.00,meteohub,2013-03-05 18:52:00,
2013-03-05 12:57:00,29.7,23.4,29.96,NE,40,13.0,20.0,77,0.00,,,0.00,meteohub,2013-03-05 18:57:00,
2013-03-05 13:02:00,29.7,23.4,29.96,NNE,22,13.0,20.0,77,0.00,,,0.00,meteohub,2013-03-05 19:02:00,
2013-03-05 13:07:00,29.7,23.7,29.96,NNE,32,10.0,20.0,78,0.00,,,0.00,meteohub,2013-03-05 19:07:00,
2013-03-05 13:12:00,29.7,23.7,29.96,NNE,28,14.0,20.0,78,0.00,,,0.00,meteohub,2013-03-05 19:12:00,
2013-03-05 13:17:00,29.7,23.9,29.96,North,5,10.0,19.0,79,0.00,,,0.00,meteohub,2013-03-05 19:17:00,
2013-03-05 13:22:00,29.3,24.3,29.96,NNE,22,11.0,18.0,81,0.00,,,0.00,meteohub,2013-03-05 19:22:00,
2013-03-05 13:27:00,29.3,24.3,29.95,NNE,15,13.0,18.0,81,0.00,,,0.00,meteohub,2013-03-05 19:27:00,
2013-03-05 13:32:00,29.3,24.3,29.95,North,5,13.0,17.0,81,0.00,,,0.00,meteohub,2013-03-05 19:32:00,
2013-03-05 13:37:00,29.5,23.7,29.95,NNE,24,12.0,17.0,79,0.00,,,0.00,meteohub,2013-03-05 19:37:00,
2013-03-05 13:42:00,29.7,23.4,29.95,NNE,24,11.0,18.0,77,0.00,,,0.00,meteohub,2013-03-05 19:42:00,
2013-03-05 13:47:00,29.7,23.4,29.96,NE,40,13.0,22.0,77,0.00,,,0.00,meteohub,2013-03-05 19:47:00,
2013-03-05 13:52:00,29.7,23.4,29.96,NNE,30,11.0,22.0,77,0.00,,,0.00,meteohub,2013-03-05 19:52:00,
2013-03-05 13:57:00,29.5,23.2,29.96,NNE,26,15.0,22.0,77,0.00,,,0.00,meteohub,2013-03-05 19:57:00,
2013-03-05 14:02:00,29.5,23.2,29.96,NNE,27,15.0,22.0,77,0.00,,,0.00,meteohub,2013-03-05 20:02:00,
2013-03-05 14:07:00,29.5,22.5,29.96,NNE,22,17.0,22.0,75,0.00,,,0.00,meteohub,2013-03-05 20:07:00,
2013-03-05 14:12:00,29.5,22.8,29.96,NE,35,19.0,24.0,76,0.00,,,0.00,meteohub,2013-03-05 20:12:00,
2013-03-05 14:17:00,29.5,22.8,29.96,NE,36,20.0,24.0,76,0.00,,,0.00,meteohub,2013-03-05 20:17:00,
2013-03-05 14:22:00,29.7,23.0,29.96,NE,46,20.0,24.0,76,0.00,,,0.00,meteohub,2013-03-05 20:22:00,
2013-03-05 14:27:00,29.7,23.4,29.96,NNE,22,14.0,23.0,77,0.00,,,0.00,meteohub,2013-03-05 20:27:00,
2013-03-05 14:32:00,29.7,23.4,29.96,NNE,29,14.0,23.0,77,0.00,,,0.00,meteohub,2013-03-05 20:32:00,
2013-03-05 14:37:00,29.7,23.4,29.96,NNE,27,15.0,20.0,77,0.00,,,0.00,meteohub,2013-03-05 20:37:00,
2013-03-05 14:42:00,29.7,23.4,29.96,NNE,30,13.0,21.0,77,0.00,,,0.00,meteohub,2013-03-05 20:42:00,
2013-03-05 14:47:00,29.7,23.4,29.96,NNE,32,9.0,21.0,77,0.00,,,0.00,meteohub,2013-03-05 20:47:00,
2013-03-05 14:52:00,29.5,23.5,29.96,NNE,21,15.0,22.0,78,0.00,,,0.00,meteohub,2013-03-05 20:52:00,
2013-03-05 14:57:00,28.9,23.5,29.96,NNE,33,16.0,26.0,80,0.00,,,0.00,meteohub,2013-03-05 20:57:00,
2013-03-05 15:02:00,28.8,23.7,29.97,NNE,21,17.0,26.0,81,0.00,,,0.00,meteohub,2013-03-05 21:02:00,
2013-03-05 15:07:00,28.2,23.7,29.96,NE,36,19.0,26.0,83,0.00,,,0.00,meteohub,2013-03-05 21:07:00,
2013-03-05 15:12:00,27.9,24.3,29.97,NE,39,17.0,24.0,86,0.00,,,0.00,meteohub,2013-03-05 21:12:00,
2013-03-05 15:17:00,27.9,24.4,29.97,NE,35,17.0,24.0,87,0.00,,,0.00,meteohub,2013-03-05 21:17:00,
2013-03-05 15:22:00,28.0,24.4,29.97,NNE,33,17.0,24.0,86,0.00,,,0.00,meteohub,2013-03-05 21:22:00,
2013-03-05 15:27:00,28.0,24.1,29.97,NE,34,17.0,23.0,85,0.00,,,0.00,meteohub,2013-03-05 21:27:00,
2013-03-05 15:32:00,28.0,23.9,29.97,NNE,26,18.0,23.0,84,0.00,,,0.00,meteohub,2013-03-05 21:32:00,
2013-03-05 15:37:00,27.9,23.9,29.98,North,11,15.0,22.0,85,0.00,,,0.00,meteohub,2013-03-05 21:37:00,
2013-03-05 15:42:00,27.7,24.3,29.98,NNE,19,14.0,22.0,87,0.00,,,0.00,meteohub,2013-03-05 21:42:00,
2013-03-05 15:47:00,27.5,24.4,29.98,NNE,15,19.0,21.0,88,0.00,,,0.00,meteohub,2013-03-05 21:47:00,
2013-03-05 15:52:00,27.1,24.3,29.98,NNE,14,15.0,21.0,89,0.00,,,0.00,meteohub,2013-03-05 21:52:00,
2013-03-05 15:57:00,27.0,24.6,29.98,NNE,20,15.0,20.0,91,0.00,,,0.00,meteohub,2013-03-05 21:57:00,
2013-03-05 16:02:00,26.8,24.4,29.99,NNE,27,18.0,20.0,91,0.00,,,0.00,meteohub,2013-03-05 22:02:00,
2013-03-05 16:07:00,26.8,24.8,29.99,North,5,13.0,20.0,92,0.00,,,0.00,meteohub,2013-03-05 22:07:00,
2013-03-05 16:12:00,26.8,24.8,29.99,NNE,18,14.0,20.0,92,0.00,,,0.00,meteohub,2013-03-05 22:12:00,
2013-03-05 16:17:00,26.8,24.8,29.99,North,5,10.0,19.0,92,0.00,,,0.00,meteohub,2013-03-05 22:17:00,
2013-03-05 16:22:00,26.4,24.4,30.00,North,5,18.0,20.0,92,0.00,,,0.00,meteohub,2013-03-05 22:22:00,
2013-03-05 16:27:00,26.4,24.6,30.00,NNE,17,13.0,21.0,93,0.00,,,0.00,meteohub,2013-03-05 22:27:00,
2013-03-05 16:32:00,26.2,24.4,30.00,North,9,13.0,21.0,93,0.00,,,0.00,meteohub,2013-03-05 22:32:00,
2013-03-05 16:37:00,26.2,24.4,30.00,NNE,18,17.0,21.0,93,0.00,,,0.00,meteohub,2013-03-05 22:37:00,
2013-03-05 16:42:00,26.1,24.3,30.00,North,355,16.0,20.0,93,0.00,,,0.00,meteohub,2013-03-05 22:42:00,
2013-03-05 16:47:00,26.1,24.3,30.01,North,11,14.0,21.0,93,0.00,,,0.00,meteohub,2013-03-05 22:47:00,
2013-03-05 16:52:00,25.9,24.1,30.01,NNE,17,13.0,21.0,93,0.00,,,0.00,meteohub,2013-03-05 22:52:00,
2013-03-05 16:57:00,25.9,24.1,30.02,NNE,24,16.0,22.0,93,0.00,,,0.00,meteohub,2013-03-05 22:57:00,
2013-03-05 17:02:00,25.7,23.9,30.02,NNE,32,14.0,24.0,93,0.00,,,0.00,meteohub,2013-03-05 23:02:00,
2013-03-05 17:07:00,25.5,24.1,30.02,North,5,16.0,24.0,94,0.00,,,0.00,meteohub,2013-03-05 23:07:00,
2013-03-05 17:12:00,25.3,23.9,30.02,NNE,23,10.0,20.0,94,0.00,,,0.00,meteohub,2013-03-05 23:12:00,
2013-03-05 17:17:00,25.3,23.5,30.03,North,5,18.0,20.0,93,0.00,,,0.00,meteohub,2013-03-05 23:17:00,
2013-03-05 17:22:00,25.2,23.4,30.03,North,0,16.0,24.0,93,0.00,,,0.00,meteohub,2013-03-05 23:22:00,
2013-03-05 17:27:00,25.2,23.7,30.03,North,5,14.0,24.0,94,0.00,,,0.00,meteohub,2013-03-05 23:27:00,
2013-03-05 17:32:00,25.0,23.2,30.03,NNE,13,16.0,24.0,93,0.00,,,0.00,meteohub,2013-03-05 23:32:00,
2013-03-05 17:37:00,24.8,23.4,30.04,North,0,17.0,24.0,94,0.00,,,0.00,meteohub,2013-03-05 23:37:00,
2013-03-05 17:42:00,24.4,23.0,30.04,NNE,13,17.0,24.0,94,0.00,,,0.00,meteohub,2013-03-05 23:42:00,
2013-03-05 17:47:00,24.3,22.5,30.04,North,5,15.0,25.0,93,0.00,,,0.00,meteohub,2013-03-05 23:47:00,
2013-03-05 17:53:00,24.1,22.6,30.04,North,9,15.0,25.0,94,0.00,,,0.00,meteohub,2013-03-05 23:53:00,
2013-03-05 17:58:00,24.1,22.6,30.05,North,0,16.0,28.0,94,0.00,,,0.00,meteohub,2013-03-05 23:58:00,
2013-03-05 18:03:00,23.9,22.5,30.05,North,355,18.0,28.0,94,0.00,,,0.00,meteohub,2013-03-06 00:03:00,
2013-03-05 18:08:00,23.9,22.5,30.05,North,355,18.0,28.0,94,0.00,,,0.00,meteohub,2013-03-06 00:08:00,
2013-03-05 18:13:00,24.1,22.6,30.05,NNE,12,17.0,26.0,94,0.00,,,0.00,meteohub,2013-03-06 00:13:00,
2013-03-05 18:18:00,24.1,22.6,30.06,North,9,18.0,26.0,94,0.00,,,0.00,meteohub,2013-03-06 00:18:00,
2013-03-05 18:24:00,24.1,22.6,30.06,North,0,17.0,26.0,94,0.00,,,0.00,meteohub,2013-03-06 00:24:00,
2013-03-05 18:29:00,24.1,22.6,30.06,North,5,15.0,21.0,94,0.00,,,0.00,meteohub,2013-03-06 00:29:00,
2013-03-05 18:34:00,24.1,22.6,30.06,North,5,16.0,21.0,94,0.00,,,0.00,meteohub,2013-03-06 00:34:00,
2013-03-05 18:39:00,24.1,22.6,30.06,North,5,14.0,21.0,94,0.00,,,0.00,meteohub,2013-03-06 00:39:00,
2013-03-05 18:44:00,24.1,22.6,30.06,North,355,13.0,21.0,94,0.00,,,0.00,meteohub,2013-03-06 00:44:00,
2013-03-05 18:50:00,24.1,22.6,30.06,North,355,17.0,21.0,94,0.00,,,0.00,meteohub,2013-03-06 00:50:00,
2013-03-05 18:55:00,24.1,22.6,30.06,North,351,14.0,22.0,94,0.00,,,0.00,meteohub,2013-03-06 00:55:00,
2013-03-05 19:00:00,24.3,22.8,30.06,North,0,19.0,22.0,94,0.00,,,0.00,meteohub,2013-03-06 01:00:00,
2013-03-05 19:05:00,24.3,22.8,30.06,NNW,341,15.0,22.0,94,0.00,,,0.00,meteohub,2013-03-06 01:05:00,
2013-03-05 19:10:00,24.3,22.8,30.07,North,5,15.0,20.0,94,0.00,,,0.00,meteohub,2013-03-06 01:10:00,
2013-03-05 19:16:00,24.3,22.8,30.07,North,355,13.0,20.0,94,0.00,,,0.00,meteohub,2013-03-06 01:16:00,
2013-03-05 19:21:00,24.3,22.8,30.07,North,0,16.0,19.0,94,0.00,,,0.00,meteohub,2013-03-06 01:21:00,
2013-03-05 19:26:00,24.3,22.8,30.07,North,0,11.0,19.0,94,0.00,,,0.00,meteohub,2013-03-06 01:26:00,
2013-03-05 19:31:00,24.4,23.0,30.07,NNW,343,14.0,19.0,94,0.00,,,0.00,meteohub,2013-03-06 01:31:00,
2013-03-05 19:36:00,24.4,23.0,30.07,North,355,14.0,19.0,94,0.00,,,0.00,meteohub,2013-03-06 01:36:00,
2013-03-05 19:42:00,24.4,23.0,30.07,NNW,344,13.0,19.0,94,0.00,,,0.00,meteohub,2013-03-06 01:42:00,
2013-03-05 19:47:00,24.4,23.0,30.07,North,355,11.0,19.0,94,0.00,,,0.00,meteohub,2013-03-06 01:47:00,
2013-03-05 19:52:00,24.4,23.0,30.07,North,351,13.0,19.0,94,0.00,,,0.00,meteohub,2013-03-06 01:52:00,
2013-03-05 19:57:00,24.6,23.2,30.07,North,355,10.0,19.0,94,0.00,,,0.00,meteohub,2013-03-06 01:57:00,
2013-03-05 20:02:00,24.6,23.2,30.07,NNW,346,12.0,16.0,94,0.00,,,0.00,meteohub,2013-03-06 02:02:00,
2013-03-05 20:07:00,24.6,23.2,30.07,NNW,348,13.0,16.0,94,0.00,,,0.00,meteohub,2013-03-06 02:07:00,
2013-03-05 20:12:00,25.0,23.5,30.07,NNW,348,13.0,15.0,94,0.00,,,0.00,meteohub,2013-03-06 02:12:00,
2013-03-05 20:17:00,25.0,23.2,30.07,North,349,10.0,15.0,93,0.00,,,0.00,meteohub,2013-03-06 02:17:00,
2013-03-05 20:22:00,25.0,23.5,30.07,NNW,335,12.0,15.0,94,0.00,,,0.00,meteohub,2013-03-06 02:22:00,
2013-03-05 20:28:00,25.0,23.2,30.08,North,355,11.0,14.0,93,0.00,,,0.00,meteohub,2013-03-06 02:28:00,
2013-03-05 20:33:00,25.0,23.2,30.08,North,355,10.0,15.0,93,0.00,,,0.00,meteohub,2013-03-06 02:33:00,
2013-03-05 20:38:00,25.0,23.2,30.08,NNW,346,12.0,15.0,93,0.00,,,0.00,meteohub,2013-03-06 02:38:00,
2013-03-05 20:43:00,25.0,23.2,30.08,North,350,11.0,15.0,93,0.00,,,0.00,meteohub,2013-03-06 02:43:00,
2013-03-05 20:48:00,25.0,23.2,30.08,North,-999,-999.0,14.0,93,0.00,,,0.00,meteohub,2013-03-06 02:48:00,
2013-03-05 20:53:00,25.2,23.4,30.08,North,355,12.0,14.0,93,0.00,,,0.00,meteohub,2013-03-06 02:53:00,
2013-03-05 20:59:00,25.0,23.2,30.09,North,355,14.0,15.0,93,0.00,,,0.00,meteohub,2013-03-06 02:59:00,
2013-03-05 21:04:00,25.0,23.2,30.09,North,351,9.0,15.0,93,0.00,,,0.00,meteohub,2013-03-06 03:04:00,
2013-03-05 21:09:00,25.0,23.2,30.09,North,5,10.0,15.0,93,0.00,,,0.00,meteohub,2013-03-06 03:09:00,
2013-03-05 21:14:00,25.0,23.2,30.09,North,355,11.0,15.0,93,0.00,,,0.00,meteohub,2013-03-06 03:14:00,
2013-03-05 21:19:00,25.2,23.2,30.09,North,5,11.0,13.0,92,0.00,,,0.00,meteohub,2013-03-06 03:19:00,
2013-03-05 21:25:00,25.5,23.5,30.09,North,11,13.0,16.0,92,0.00,,,0.00,meteohub,2013-03-06 03:25:00,
2013-03-05 21:30:00,25.9,23.5,30.09,NNE,19,18.0,18.0,91,0.00,,,0.00,meteohub,2013-03-06 03:30:00,
2013-03-05 21:35:00,26.1,23.7,30.09,North,355,16.0,20.0,91,0.00,,,0.00,meteohub,2013-03-06 03:35:00,
2013-03-05 21:40:00,26.1,23.7,30.09,North,351,15.0,20.0,91,0.00,,,0.00,meteohub,2013-03-06 03:40:00,
2013-03-05 21:45:00,26.1,23.7,30.09,North,350,13.0,18.0,91,0.00,,,0.00,meteohub,2013-03-06 03:45:00,
2013-03-05 21:50:00,25.9,23.5,30.09,NNW,343,12.0,18.0,91,0.00,,,0.00,meteohub,2013-03-06 03:50:00,
2013-03-05 21:56:00,26.1,23.7,30.09,NNW,348,12.0,18.0,91,0.00,,,0.00,meteohub,2013-03-06 03:56:00,
2013-03-05 22:01:00,26.1,23.7,30.10,North,0,9.0,18.0,91,0.00,,,0.00,meteohub,2013-03-06 04:01:00,
2013-03-05 22:06:00,26.1,23.7,30.10,North,350,13.0,18.0,91,0.00,,,0.00,meteohub,2013-03-06 04:06:00,
2013-03-05 22:11:00,26.1,23.7,30.10,North,5,13.0,17.0,91,0.00,,,0.00,meteohub,2013-03-06 04:11:00,
2013-03-05 22:16:00,25.9,23.5,30.10,North,350,12.0,16.0,91,0.00,,,0.00,meteohub,2013-03-06 04:16:00,
2013-03-05 22:22:00,25.9,23.5,30.10,NNW,344,9.0,15.0,91,0.00,,,0.00,meteohub,2013-03-06 04:22:00,
2013-03-05 22:27:00,25.9,23.5,30.10,NNW,345,12.0,15.0,91,0.00,,,0.00,meteohub,2013-03-06 04:27:00,
2013-03-05 22:32:00,25.5,23.0,30.11,NNW,337,11.0,15.0,90,0.00,,,0.00,meteohub,2013-03-06 04:32:00,
2013-03-05 22:37:00,25.2,22.6,30.11,NNW,329,9.0,15.0,90,0.00,,,0.00,meteohub,2013-03-06 04:37:00,
2013-03-05 22:42:00,25.0,22.5,30.11,NNW,330,8.0,14.0,90,0.00,,,0.00,meteohub,2013-03-06 04:42:00,
2013-03-05 22:47:00,25.0,22.3,30.11,NNW,348,10.0,12.0,89,0.00,,,0.00,meteohub,2013-03-06 04:47:00,
2013-03-05 22:52:00,25.0,22.3,30.11,NNW,337,10.0,13.0,89,0.00,,,0.00,meteohub,2013-03-06 04:52:00,
2013-03-05 22:58:00,25.0,22.3,30.11,NNW,335,9.0,13.0,89,0.00,,,0.00,meteohub,2013-03-06 04:58:00,
2013-03-05 23:00:00,25.2,22.5,30.11,NNW,340,9.0,13.0,89,0.00,,,0.00,meteohub,2013-03-06 05:00:00,
2013-03-05 23:01:00,25.2,22.5,30.11,NNW,340,11.0,13.0,89,0.00,,,0.00,meteohub,2013-03-06 05:01:00,
2013-03-05 23:03:00,25.2,22.5,30.11,NNW,335,11.0,13.0,89,0.00,,,0.00,meteohub,2013-03-06 05:03:00,
2013-03-05 23:08:00,25.3,22.6,30.11,North,350,11.0,12.0,89,0.00,,,0.00,meteohub,2013-03-06 05:08:00,
2013-03-05 23:13:00,25.5,22.8,30.11,NNW,344,13.0,14.0,89,0.00,,,0.00,meteohub,2013-03-06 05:13:00,
2013-03-05 23:18:00,25.7,23.0,30.12,North,351,10.0,14.0,89,0.00,,,0.00,meteohub,2013-03-06 05:18:00,
2013-03-05 23:24:00,25.9,23.0,30.12,NNW,344,9.0,14.0,89,0.00,,,0.00,meteohub,2013-03-06 05:24:00,
2013-03-05 23:29:00,26.1,23.2,30.12,NNW,345,10.0,15.0,89,0.00,,,0.00,meteohub,2013-03-06 05:29:00,
2013-03-05 23:34:00,26.2,23.7,30.12,NNW,345,11.0,16.0,90,0.00,,,0.00,meteohub,2013-03-06 05:34:00,
2013-03-05 23:39:00,26.2,23.7,30.12,NNW,338,11.0,16.0,90,0.00,,,0.00,meteohub,2013-03-06 05:39:00,
2013-03-05 23:44:00,26.2,23.7,30.12,NNW,342,11.0,16.0,90,0.00,,,0.00,meteohub,2013-03-06 05:44:00,
2013-03-05 23:49:00,26.2,23.7,30.13,NNW,338,15.0,16.0,90,0.00,,,0.00,meteohub,2013-03-06 05:49:00,
2013-03-05 23:55:00,26.2,23.7,30.13,North,355,14.0,17.0,90,0.00,,,0.00,meteohub,2013-03-06 05:55:00,